Time;durP1;ratioP1;P1;durP2;ratioP2;P2;SDS_P1;SDS_P2;PMS_P1;PMS_P2;Temp;Humidity;BMP_temperature;BMP_pressure;BME280_temperature;BME280_humidity;BME280_pressure;Samples;Min_cycle;Max_cycle;Signal;HPM_P1;HPM_P2
2021/01/24 00:01:02;;;;;;;13.15;1.40;;;11.30;99.90;;;;;;4992475;28;20050;-64
2021/01/24 00:03:30;;;;;;;9.98;1.20;;;11.30;99.90;;;;;;4992984;28;20050;-62
2021/01/24 00:05:57;;;;;;;5.32;2.13;;;11.40;99.90;;;;;;5010511;28;20060;-64
2021/01/24 00:08:27;;;;;;;5.45;1.23;;;11.40;99.90;;;;;;5009217;28;20057;-64
2021/01/24 00:10:54;;;;;;;4.55;0.98;;;11.40;99.90;;;;;;4992185;28;20399;-61
2021/01/24 00:13:23;;;;;;;7.30;1.30;;;11.30;99.90;;;;;;5009983;28;20052;-63
2021/01/24 00:15:50;;;;;;;6.78;0.82;;;11.30;99.90;;;;;;5009904;28;20046;-64
2021/01/24 00:18:18;;;;;;;13.45;2.28;;;11.30;99.90;;;;;;5010128;28;20601;-63
2021/01/24 00:20:45;;;;;;;10.05;1.40;;;11.40;99.90;;;;;;5009390;28;20053;-63
2021/01/24 00:23:13;;;;;;;6.85;1.95;;;11.40;99.90;;;;;;4992754;28;20459;-62
2021/01/24 00:25:40;;;;;;;14.02;2.40;;;11.40;99.90;;;;;;5009964;28;20111;-64
2021/01/24 00:28:07;;;;;;;15.63;1.98;;;11.40;99.90;;;;;;5009827;28;20053;-63
2021/01/24 00:30:34;;;;;;;17.52;1.70;;;11.40;99.90;;;;;;5009815;28;20399;-64
2021/01/24 00:33:02;;;;;;;4.68;1.25;;;11.40;99.90;;;;;;5009107;28;20054;-64
2021/01/24 00:35:29;;;;;;;8.73;1.83;;;11.40;99.90;;;;;;5010097;28;20046;-63
2021/01/24 00:37:57;;;;;;;9.35;1.63;;;11.40;99.90;;;;;;5009707;28;20132;-62
2021/01/24 00:40:27;;;;;;;7.45;1.92;;;11.40;99.90;;;;;;5009793;28;20042;-64
2021/01/24 00:42:54;;;;;;;8.70;1.95;;;11.40;99.90;;;;;;5009693;28;20453;-64
2021/01/24 00:45:22;;;;;;;13.45;1.10;;;11.50;99.90;;;;;;5009405;28;20064;-64
2021/01/24 00:47:49;;;;;;;8.95;1.98;;;11.50;99.90;;;;;;5009664;28;20049;-65
2021/01/24 00:50:16;;;;;;;11.10;1.30;;;11.50;99.90;;;;;;5009684;28;20046;-63
2021/01/24 00:52:44;;;;;;;6.78;2.03;;;11.50;99.90;;;;;;4991767;28;20046;-63
2021/01/24 00:55:12;;;;;;;7.57;1.20;;;11.60;99.90;;;;;;5009503;28;20050;-65
2021/01/24 00:57:39;;;;;;;12.40;1.45;;;11.60;99.90;;;;;;5009513;28;20049;-63
2021/01/24 01:00:10;;;;;;;6.80;2.20;;;11.60;99.90;;;;;;4992313;28;20088;-64
2021/01/24 01:02:40;;;;;;;10.90;1.65;;;11.60;99.90;;;;;;4991658;28;20054;-62
2021/01/24 01:05:11;;;;;;;9.40;2.28;;;11.60;99.90;;;;;;5009528;28;20059;-63
2021/01/24 01:07:38;;;;;;;9.00;1.42;;;11.50;99.90;;;;;;5009363;28;20140;-64
2021/01/24 01:10:06;;;;;;;13.25;1.90;;;11.50;99.90;;;;;;5009669;28;20058;-62
2021/01/24 01:12:33;;;;;;;11.52;2.53;;;11.50;99.90;;;;;;5008964;28;20050;-64
2021/01/24 01:15:01;;;;;;;6.30;0.65;;;11.50;99.90;;;;;;4991566;28;20418;-64
2021/01/24 01:17:28;;;;;;;7.40;2.22;;;11.40;99.90;;;;;;5009513;28;20069;-60
2021/01/24 01:19:56;;;;;;;7.22;1.10;;;11.30;99.90;;;;;;5009145;28;20050;-64
2021/01/24 01:22:23;;;;;;;13.40;1.77;;;11.30;99.90;;;;;;4991614;28;20050;-64
2021/01/24 01:24:51;;;;;;;12.18;1.20;;;11.30;99.90;;;;;;5009299;28;20426;-64
2021/01/24 01:27:19;;;;;;;9.77;1.35;;;11.30;99.90;;;;;;5009152;28;20057;-64
2021/01/24 01:29:47;;;;;;;6.95;1.27;;;11.30;99.90;;;;;;5008839;28;20065;-64
2021/01/24 01:32:14;;;;;;;3.95;1.10;;;11.40;99.90;;;;;;5008497;28;20418;-62
2021/01/24 01:34:48;;;;;;;8.10;2.47;;;11.40;99.90;;;;;;5009369;28;20110;-63
2021/01/24 01:37:16;;;;;;;11.73;3.17;;;11.40;99.90;;;;;;4991834;28;20459;-63
2021/01/24 01:39:45;;;;;;;14.07;3.17;;;11.40;99.90;;;;;;5008870;28;20042;-59
2021/01/24 01:42:13;;;;;;;7.60;1.98;;;11.40;99.90;;;;;;5008592;28;20139;-63
2021/01/24 01:44:42;;;;;;;7.97;2.83;;;11.40;99.90;;;;;;4992462;28;20130;-61
2021/01/24 01:47:20;;;;;;;15.07;3.00;;;11.30;99.90;;;;;;4994293;28;20567;-64
2021/01/24 01:49:57;;;;;;;7.45;2.60;;;11.20;99.90;;;;;;4979101;28;20045;-63
2021/01/24 01:52:28;;;;;;;18.58;5.13;;;11.20;99.90;;;;;;4994579;28;20076;-64
2021/01/24 01:54:57;;;;;;;18.98;4.22;;;11.10;99.90;;;;;;5012241;28;20068;-64
2021/01/24 01:57:25;;;;;;;9.13;1.63;;;11.10;99.90;;;;;;5012183;28;20057;-63
2021/01/24 01:59:52;;;;;;;9.13;1.27;;;11.10;99.90;;;;;;4994539;28;20072;-65
2021/01/24 02:02:23;;;;;;;6.53;1.42;;;11.10;99.90;;;;;;4994470;28;20095;-64
2021/01/24 02:05:06;;;;;;;9.02;1.80;;;11.10;99.90;;;;;;4995260;28;20057;-63
2021/01/24 02:07:54;;;;;;;7.63;1.10;;;11.00;99.90;;;;;;5012066;28;20046;-63
2021/01/24 02:10:31;;;;;;;7.95;1.85;;;10.90;99.90;;;;;;4994438;28;20060;-65
2021/01/24 02:13:10;;;;;;;12.35;2.35;;;10.90;99.90;;;;;;5011588;28;20165;-63
2021/01/24 02:15:44;;;;;;;9.75;3.25;;;10.80;99.90;;;;;;5011361;28;20436;-63
2021/01/24 02:18:14;;;;;;;11.55;2.58;;;10.80;99.90;;;;;;4994614;28;20081;-64
2021/01/24 02:20:55;;;;;;;18.95;2.38;;;10.70;99.90;;;;;;5011414;28;20183;-63
2021/01/24 02:23:26;;;;;;;11.65;2.35;;;10.70;99.90;;;;;;5011843;28;20468;-65
2021/01/24 02:26:19;;;;;;;6.63;1.23;;;10.70;99.90;;;;;;4994283;28;20050;-64
2021/01/24 02:29:13;;;;;;;11.07;1.38;;;10.70;99.90;;;;;;4994273;28;20467;-63
2021/01/24 02:31:42;;;;;;;6.82;1.23;;;10.80;99.90;;;;;;4994099;28;20066;-63
2021/01/24 02:34:13;;;;;;;9.70;1.10;;;10.90;99.90;;;;;;5011821;28;20050;-65
2021/01/24 02:36:41;;;;;;;5.60;1.10;;;10.90;99.90;;;;;;5011666;28;20065;-63
2021/01/24 02:39:10;;;;;;;9.20;0.82;;;11.00;99.90;;;;;;5011890;28;20380;-60
2021/01/24 02:41:39;;;;;;;5.97;1.20;;;11.00;99.90;;;;;;4977385;28;20049;-63
2021/01/24 02:44:08;;;;;;;13.10;2.40;;;11.00;99.90;;;;;;5011345;28;20060;-64
2021/01/24 02:46:36;;;;;;;9.43;1.90;;;11.00;99.90;;;;;;5010732;28;20072;-64
2021/01/24 02:49:04;;;;;;;22.77;2.17;;;10.90;99.90;;;;;;5011426;28;20057;-62
2021/01/24 02:51:36;;;;;;;5.97;1.55;;;10.90;99.90;;;;;;5010931;28;20058;-63
2021/01/24 02:54:05;;;;;;;8.38;1.88;;;10.90;99.90;;;;;;5010810;28;20045;-64
2021/01/24 02:56:33;;;;;;;5.28;0.90;;;10.80;99.90;;;;;;5010883;28;20483;-63
2021/01/24 02:59:02;;;;;;;8.23;1.35;;;10.90;99.90;;;;;;5011576;28;20050;-64
2021/01/24 03:01:33;;;;;;;11.98;2.20;;;10.90;99.90;;;;;;4993569;28;20050;-64
2021/01/24 03:04:02;;;;;;;9.07;1.33;;;10.90;99.90;;;;;;5011064;28;20046;-64
2021/01/24 03:06:30;;;;;;;11.98;1.63;;;11.00;99.90;;;;;;5011064;28;20429;-63
2021/01/24 03:08:59;;;;;;;9.98;1.60;;;11.10;99.90;;;;;;5011395;28;20486;-62
2021/01/24 03:11:28;;;;;;;16.13;2.50;;;11.20;99.90;;;;;;5010636;28;20054;-64
2021/01/24 03:14:04;;;;;;;17.85;5.97;;;11.20;99.90;;;;;;5010874;28;20050;-60
2021/01/24 03:16:32;;;;;;;;;;;11.20;99.90;;;;;;5011453;28;20110;-62
2021/01/24 03:19:01;;;;;;;12.10;1.98;;;11.20;99.90;;;;;;5011278;28;20279;-65
2021/01/24 03:21:31;;;;;;;17.23;3.05;;;11.20;99.90;;;;;;5010779;28;20496;-61
2021/01/24 03:23:59;;;;;;;16.40;1.92;;;11.30;99.90;;;;;;5010548;28;20194;-63
2021/01/24 03:26:29;;;;;;;14.63;2.17;;;11.30;99.90;;;;;;5011119;28;20457;-63
2021/01/24 03:28:57;;;;;;;17.10;2.45;;;11.30;99.90;;;;;;5010797;28;20102;-63
2021/01/24 03:31:24;;;;;;;10.45;1.98;;;11.30;99.90;;;;;;5010220;28;20053;-63
2021/01/24 03:33:53;;;;;;;13.55;2.22;;;11.20;99.90;;;;;;5010535;28;20122;-63
2021/01/24 03:36:20;;;;;;;6.05;1.00;;;11.20;99.90;;;;;;5010619;28;20512;-65
2021/01/24 03:38:48;;;;;;;10.15;2.17;;;11.20;99.90;;;;;;4977201;28;20129;-65
2021/01/24 03:41:15;;;;;;;15.05;3.75;;;11.10;99.90;;;;;;4992885;28;20053;-63
2021/01/24 03:43:43;;;;;;;13.52;2.78;;;11.10;99.90;;;;;;5010707;28;20079;-65
2021/01/24 03:46:10;;;;;;;12.43;1.92;;;11.10;99.90;;;;;;5011912;28;20058;-62
2021/01/24 03:48:44;;;;;;;8.52;1.77;;;11.10;99.90;;;;;;5010980;28;20130;-64
2021/01/24 03:51:11;;;;;;;11.25;1.63;;;11.10;99.90;;;;;;5010149;28;20053;-64
2021/01/24 03:53:41;;;;;;;10.45;2.25;;;11.10;99.90;;;;;;5010481;28;20544;-63
2021/01/24 03:56:08;;;;;;;7.60;1.95;;;11.00;99.90;;;;;;5010243;28;20099;-64
2021/01/24 03:58:36;;;;;;;11.90;3.50;;;10.90;99.90;;;;;;4992876;28;20046;-63
2021/01/24 04:01:04;;;;;;;12.52;4.03;;;10.90;99.90;;;;;;5010331;28;20050;-62
2021/01/24 04:03:31;;;;;;;14.98;2.17;;;10.90;99.90;;;;;;5010196;28;20050;-64
2021/01/24 04:06:01;;;;;;;12.65;1.92;;;10.90;99.90;;;;;;5010471;28;20045;-63
2021/01/24 04:08:28;;;;;;;5.65;0.90;;;11.00;99.90;;;;;;5009600;28;20499;-62
2021/01/24 04:10:56;;;;;;;17.40;2.95;;;11.00;99.90;;;;;;5010083;28;20053;-63
2021/01/24 04:13:24;;;;;;;11.80;1.77;;;11.10;99.90;;;;;;5010101;28;20050;-65
2021/01/24 04:15:52;;;;;;;10.80;1.60;;;11.10;99.90;;;;;;5009787;28;20141;-65
2021/01/24 04:18:20;;;;;;;11.13;1.90;;;11.10;99.90;;;;;;5009972;28;20049;-63
2021/01/24 04:20:47;;;;;;;7.45;2.72;;;11.10;99.90;;;;;;5009600;28;20525;-63
2021/01/24 04:23:15;;;;;;;11.63;2.17;;;11.10;99.90;;;;;;5010016;28;20053;-63
2021/01/24 04:25:44;;;;;;;10.57;1.67;;;11.10;99.90;;;;;;5009914;28;20137;-64
2021/01/24 04:28:13;;;;;;;9.38;1.65;;;11.00;99.90;;;;;;4992664;28;20050;-65
2021/01/24 04:30:40;;;;;;;8.40;2.25;;;11.00;99.90;;;;;;4992079;28;20057;-63
2021/01/24 04:33:07;;;;;;;8.80;1.70;;;10.90;99.90;;;;;;5009965;28;20137;-61
2021/01/24 04:35:35;;;;;;;9.95;1.83;;;10.80;99.90;;;;;;5009753;28;20083;-64
2021/01/24 04:38:04;;;;;;;12.80;2.97;;;10.80;99.90;;;;;;4992508;28;20137;-64
2021/01/24 04:40:31;;;;;;;16.73;1.27;;;10.70;99.90;;;;;;5009666;28;20053;-63
2021/01/24 04:42:59;;;;;;;13.95;1.92;;;10.70;99.90;;;;;;4992116;28;20050;-63
2021/01/24 04:45:27;;;;;;;13.30;2.67;;;10.80;99.90;;;;;;4992074;28;20133;-61
2021/01/24 04:47:55;;;;;;;7.15;1.45;;;10.80;99.90;;;;;;5009686;28;20078;-64
2021/01/24 04:50:26;;;;;;;13.18;2.15;;;10.90;99.90;;;;;;5009569;28;20076;-59
2021/01/24 04:52:54;;;;;;;8.60;1.13;;;10.80;99.90;;;;;;5009201;28;20407;-64
2021/01/24 04:55:22;;;;;;;12.90;1.58;;;10.80;99.90;;;;;;5009585;28;20050;-63
2021/01/24 04:57:53;;;;;;;3.58;0.80;;;10.90;99.90;;;;;;5009634;28;20126;-65
2021/01/24 05:00:25;;;;;;;11.15;2.53;;;11.00;99.90;;;;;;4992511;28;20070;-65
2021/01/24 05:02:53;;;;;;;8.70;1.48;;;11.00;99.90;;;;;;4991657;28;20050;-61
2021/01/24 05:05:20;;;;;;;13.30;1.92;;;10.90;99.90;;;;;;5009456;28;20050;-62
2021/01/24 05:07:52;;;;;;;13.25;3.30;;;10.90;99.90;;;;;;5009542;28;20148;-63
2021/01/24 05:10:29;;;;;;;21.52;2.20;;;10.80;99.90;;;;;;4992848;28;20127;-63
2021/01/24 05:12:58;;;;;;;16.90;0.80;;;10.70;99.90;;;;;;5009026;28;20494;-63
2021/01/24 05:15:27;;;;;;;23.00;2.70;;;10.70;99.90;;;;;;5009014;28;20464;-63
2021/01/24 05:17:57;;;;;;;10.95;1.38;;;10.80;99.90;;;;;;5009548;28;20437;-64
2021/01/24 05:20:28;;;;;;;9.88;0.90;;;10.80;99.90;;;;;;5010780;28;20046;-64
2021/01/24 05:22:56;;;;;;;12.18;1.30;;;10.90;99.90;;;;;;5012527;28;20057;-63
2021/01/24 05:25:30;;;;;;;12.13;2.10;;;11.00;99.90;;;;;;5012976;28;20050;-64
2021/01/24 05:28:17;;;;;;;9.00;1.73;;;11.00;99.90;;;;;;4995180;28;20418;-63
2021/01/24 05:30:45;;;;;;;7.25;1.95;;;11.10;99.90;;;;;;4994708;28;20065;-61
2021/01/24 05:33:19;;;;;;;11.65;2.45;;;11.10;99.90;;;;;;5012605;28;20076;-65
2021/01/24 05:35:51;;;;;;;7.55;1.45;;;11.10;99.90;;;;;;5012552;28;20395;-63
2021/01/24 05:38:29;;;;;;;10.50;1.48;;;11.20;99.90;;;;;;4995692;28;20087;-64
2021/01/24 05:41:00;;;;;;;13.05;1.42;;;11.20;99.90;;;;;;5012078;28;20049;-64
2021/01/24 05:43:36;;;;;;;10.82;1.90;;;11.20;99.90;;;;;;5012139;28;20095;-60
2021/01/24 05:46:04;;;;;;;10.77;1.50;;;11.30;99.90;;;;;;4994723;28;20129;-62
2021/01/24 05:48:37;;;;;;;13.88;1.92;;;11.30;99.90;;;;;;4995011;28;20133;-63
2021/01/24 05:51:07;;;;;;;10.38;1.80;;;11.30;99.90;;;;;;5011773;28;20050;-64
2021/01/24 05:53:40;;;;;;;16.45;1.45;;;11.30;99.90;;;;;;4994522;28;20042;-63
2021/01/24 05:56:15;;;;;;;16.17;2.90;;;11.30;99.90;;;;;;5012198;28;20076;-63
2021/01/24 05:58:43;;;;;;;10.00;1.55;;;11.30;99.90;;;;;;5012138;28;20050;-64
2021/01/24 06:01:11;;;;;;;7.60;1.60;;;11.20;99.90;;;;;;4994414;28;20073;-63
2021/01/24 06:03:39;;;;;;;7.05;1.75;;;11.20;99.90;;;;;;5012007;28;20054;-64
2021/01/24 06:06:06;;;;;;;10.63;1.83;;;11.20;99.90;;;;;;5011832;28;20046;-64
2021/01/24 06:08:33;;;;;;;21.38;2.78;;;11.30;99.90;;;;;;5011925;28;20107;-63
2021/01/24 06:11:05;;;;;;;13.25;1.95;;;11.30;99.90;;;;;;5011405;28;20521;-63
2021/01/24 06:13:34;;;;;;;16.75;1.90;;;11.30;99.90;;;;;;5011300;28;20062;-63
2021/01/24 06:16:34;;;;;;;11.70;1.55;;;11.30;99.90;;;;;;4993849;28;20064;-62
2021/01/24 06:19:07;;;;;;;18.60;1.80;;;11.20;99.90;;;;;;5010496;28;20057;-63
2021/01/24 06:21:56;;;;;;;13.75;2.05;;;11.30;99.90;;;;;;5011613;28;20088;-63
2021/01/24 06:24:41;;;;;;;12.00;1.67;;;11.30;99.90;;;;;;5011680;28;20107;-60
2021/01/24 06:27:10;;;;;;;11.70;1.35;;;11.30;99.90;;;;;;5011655;28;20586;-64
2021/01/24 06:29:41;;;;;;;18.35;2.88;;;11.30;99.90;;;;;;5011676;28;20057;-62
2021/01/24 06:32:22;;;;;;;8.52;1.45;;;11.30;99.90;;;;;;5010417;28;20069;-65
2021/01/24 06:34:52;;;;;;;15.20;1.98;;;11.30;99.90;;;;;;5011548;28;20403;-65
2021/01/24 06:37:21;;;;;;;10.43;2.33;;;11.30;99.90;;;;;;5011485;28;20045;-61
2021/01/24 06:39:51;;;;;;;15.50;3.97;;;11.30;99.90;;;;;;5011562;28;20052;-62
2021/01/24 06:42:46;;;;;;;14.07;2.47;;;11.40;99.90;;;;;;4994091;28;20106;-63
2021/01/24 06:45:25;;;;;;;9.52;1.95;;;11.40;99.90;;;;;;5011015;28;20099;-64
2021/01/24 06:48:00;;;;;;;14.05;2.38;;;11.50;99.90;;;;;;4994132;28;20050;-63
2021/01/24 06:50:48;;;;;;;15.15;3.13;;;11.50;99.90;;;;;;5011353;28;20135;-63
2021/01/24 06:53:21;;;;;;;17.25;2.05;;;11.50;99.90;;;;;;5011254;28;20079;-63
2021/01/24 06:56:01;;;;;;;9.45;1.85;;;11.60;99.90;;;;;;4993712;28;20512;-63
2021/01/24 06:58:46;;;;;;;9.23;1.90;;;11.60;99.90;;;;;;4994018;28;20137;-63
2021/01/24 07:01:33;;;;;;;13.02;2.13;;;11.60;99.90;;;;;;4993397;28;20042;-65
2021/01/24 07:04:20;;;;;;;15.55;2.78;;;11.60;99.90;;;;;;5011165;28;20054;-64
2021/01/24 07:06:55;;;;;;;10.20;3.03;;;11.70;99.90;;;;;;4993894;28;20463;-63
2021/01/24 07:09:28;;;;;;;20.52;3.90;;;11.80;99.90;;;;;;4977776;28;20106;-63
2021/01/24 07:12:01;;;;;;;11.82;2.70;;;11.80;99.90;;;;;;5010481;28;20054;-62
2021/01/24 07:14:41;;;;;;;18.77;3.08;;;11.90;99.90;;;;;;5010665;28;20517;-60
2021/01/24 07:17:14;;;;;;;15.60;3.50;;;11.90;99.90;;;;;;5010971;28;20099;-62
2021/01/24 07:19:44;;;;;;;22.73;4.60;;;12.00;99.90;;;;;;5010726;28;20105;-65
2021/01/24 07:22:15;;;;;;;23.60;6.30;;;12.00;99.90;;;;;;4993185;28;20050;-64
2021/01/24 07:24:45;;;;;;;18.25;3.75;;;12.10;99.90;;;;;;5011228;28;20486;-65
2021/01/24 07:27:18;;;;;;;25.90;6.20;;;12.10;99.90;;;;;;5010974;28;20054;-64
2021/01/24 07:29:45;;;;;;;18.92;4.95;;;12.20;99.90;;;;;;5010764;28;20057;-65
2021/01/24 07:32:15;;;;;;;26.42;4.32;;;12.20;99.90;;;;;;5010239;28;20070;-64
2021/01/24 07:34:48;;;;;;;15.55;3.25;;;12.30;99.90;;;;;;5010824;28;20046;-64
2021/01/24 07:37:15;;;;;;;17.02;5.10;;;12.40;99.90;;;;;;4993735;28;20046;-63
2021/01/24 07:39:45;;;;;;;25.67;4.03;;;12.50;99.90;;;;;;5010754;28;20050;-65
2021/01/24 07:42:13;;;;;;;41.35;4.07;;;12.50;99.90;;;;;;5009677;28;20068;-65
2021/01/24 07:44:42;;;;;;;11.73;3.63;;;12.60;99.90;;;;;;5010313;28;20058;-64
2021/01/24 07:47:11;;;;;;;9.32;2.60;;;12.80;99.90;;;;;;5010687;28;20396;-64
2021/01/24 07:49:39;;;;;;;20.23;4.85;;;12.90;99.90;;;;;;5010871;28;20080;-65
2021/01/24 07:52:08;;;;;;;15.30;4.25;;;12.90;99.90;;;;;;4992626;28;20050;-64
2021/01/24 07:54:36;;;;;;;19.38;2.67;;;12.90;99.90;;;;;;5010425;28;20463;-64
2021/01/24 07:57:05;;;;;;;18.88;5.32;;;13.00;99.90;;;;;;5010497;28;20125;-65
2021/01/24 07:59:33;;;;;;;26.23;4.47;;;13.00;99.90;;;;;;4992954;28;20046;-64
2021/01/24 08:02:01;;;;;;;22.55;4.45;;;13.10;99.90;;;;;;5009746;28;20045;-64
2021/01/24 08:04:29;;;;;;;15.73;3.13;;;13.00;99.90;;;;;;5010394;28;20529;-64
2021/01/24 08:06:57;;;;;;;15.93;2.95;;;13.10;99.90;;;;;;5010433;28;20058;-64
2021/01/24 08:09:25;;;;;;;19.65;3.70;;;13.10;99.90;;;;;;5010430;28;20077;-63
2021/01/24 08:11:53;;;;;;;20.55;3.22;;;13.20;99.90;;;;;;5009853;28;20049;-64
2021/01/24 08:14:20;;;;;;;7.30;2.10;;;13.20;99.90;;;;;;5009891;28;20126;-63
2021/01/24 08:16:50;;;;;;;14.20;5.50;;;13.30;99.90;;;;;;4977111;28;20079;-62
2021/01/24 08:19:22;;;;;;;22.08;7.55;;;13.30;99.90;;;;;;5010034;28;20054;-65
2021/01/24 08:21:51;;;;;;;18.13;6.93;;;13.30;99.90;;;;;;4992656;28;20042;-65
2021/01/24 08:24:19;;;;;;;15.60;5.68;;;13.40;99.90;;;;;;5010464;28;20124;-64
2021/01/24 08:26:48;;;;;;;14.95;2.85;;;13.40;99.90;;;;;;4992811;28;20050;-65
2021/01/24 08:29:16;;;;;;;6.30;2.63;;;13.40;99.90;;;;;;5009891;28;20137;-65
2021/01/24 08:31:45;;;;;;;16.98;3.90;;;13.40;99.90;;;;;;5009515;28;20426;-66
2021/01/24 08:34:16;;;;;;;23.10;7.72;;;13.40;99.90;;;;;;5009815;28;20062;-64
2021/01/24 08:36:44;;;;;;;22.40;5.45;;;13.40;99.90;;;;;;5009820;28;20050;-64
2021/01/24 08:39:11;;;;;;;24.08;3.97;;;13.50;99.90;;;;;;5009890;28;20048;-64
2021/01/24 08:41:40;;;;;;;21.75;3.83;;;13.60;99.90;;;;;;5009543;28;20144;-64
2021/01/24 08:44:10;;;;;;;21.10;5.32;;;13.70;99.90;;;;;;5009672;28;20061;-62
2021/01/24 08:46:45;;;;;;;16.52;4.05;;;13.70;99.90;;;;;;5009253;28;20132;-65
2021/01/24 08:49:22;;;;;;;17.85;2.72;;;13.70;99.90;;;;;;5009580;28;20132;-63
2021/01/24 08:51:57;;;;;;;14.02;5.47;;;13.70;99.90;;;;;;5009608;28;20049;-64
2021/01/24 08:54:31;;;;;;;19.90;8.27;;;13.70;99.90;;;;;;5011282;28;20054;-62
2021/01/24 08:57:20;;;;;;;25.20;8.32;;;13.70;99.90;;;;;;4996196;28;20376;-64
2021/01/24 08:59:51;;;;;;;15.77;4.53;;;13.80;99.90;;;;;;4996078;28;20107;-64
2021/01/24 09:02:40;;;;;;;14.38;6.13;;;13.80;99.90;;;;;;4993942;28;20149;-63
2021/01/24 09:05:28;;;;;;;18.35;3.83;;;13.80;99.90;;;;;;5013013;28;20502;-65
2021/01/24 09:07:55;;;;;;;12.27;4.07;;;13.80;99.90;;;;;;5012286;28;20510;-65
2021/01/24 09:10:27;;;;;;;19.20;4.30;;;13.80;99.90;;;;;;4995500;28;20054;-65
2021/01/24 09:12:57;;;;;;;15.95;3.90;;;13.80;99.90;;;;;;4995276;28;20061;-63
2021/01/24 09:15:26;;;;;;;23.20;6.10;;;13.80;99.90;;;;;;4995554;28;20050;-64
2021/01/24 09:17:56;;;;;;;22.48;3.78;;;13.80;99.90;;;;;;5012756;28;20106;-67
2021/01/24 09:20:26;;;;;;;12.57;3.25;;;13.80;99.90;;;;;;4995762;28;20510;-64
2021/01/24 09:22:53;;;;;;;16.13;4.68;;;13.80;99.90;;;;;;5012863;28;20045;-65
2021/01/24 09:25:21;;;;;;;16.73;3.90;;;13.70;99.90;;;;;;4995416;28;20046;-66
2021/01/24 09:27:49;;;;;;;18.85;3.95;;;13.80;99.90;;;;;;5012880;28;20065;-65
2021/01/24 09:30:17;;;;;;;23.95;3.92;;;13.80;99.90;;;;;;5012676;28;20057;-63
2021/01/24 09:32:45;;;;;;;28.05;4.80;;;13.90;99.90;;;;;;4977715;28;20411;-65
2021/01/24 09:35:13;;;;;;;17.02;3.85;;;13.90;99.90;;;;;;4993163;28;20129;-65
2021/01/24 09:37:41;;;;;;;18.50;4.13;;;13.90;99.90;;;;;;4993203;28;20054;-64
2021/01/24 09:40:09;;;;;;;33.13;6.38;;;13.90;99.90;;;;;;4992908;28;20038;-64
2021/01/24 09:42:38;;;;;;;21.50;6.20;;;13.90;99.90;;;;;;4992385;28;20042;-63
2021/01/24 09:45:06;;;;;;;15.27;5.13;;;14.00;99.90;;;;;;4976090;28;20073;-64
2021/01/24 09:47:34;;;;;;;30.63;5.57;;;14.00;99.90;;;;;;4975638;28;20137;-64
2021/01/24 09:50:01;;;;;;;14.38;4.55;;;14.00;99.90;;;;;;4993153;28;20051;-65
2021/01/24 09:52:29;;;;;;;22.20;4.22;;;14.00;99.90;;;;;;4975246;28;20054;-64
2021/01/24 09:54:56;;;;;;;21.33;5.47;;;14.10;99.90;;;;;;4992591;28;20043;-65
2021/01/24 09:57:23;;;;;;;24.15;5.80;;;14.10;99.90;;;;;;4975688;28;20050;-66
2021/01/24 09:59:51;;;;;;;29.05;7.95;;;14.20;99.90;;;;;;4992806;28;20058;-64
2021/01/24 10:02:18;;;;;;;14.68;3.53;;;14.10;99.90;;;;;;4991943;28;20057;-64
2021/01/24 10:04:46;;;;;;;21.90;4.22;;;14.00;99.90;;;;;;4991646;28;20055;-65
2021/01/24 10:07:13;;;;;;;14.55;2.75;;;14.00;99.90;;;;;;4958740;28;20058;-64
2021/01/24 10:09:40;;;;;;;28.25;6.78;;;13.90;99.90;;;;;;4992139;28;20586;-63
2021/01/24 10:12:08;;;;;;;17.77;4.47;;;13.80;99.90;;;;;;4974720;28;20058;-66
2021/01/24 10:14:36;;;;;;;25.55;6.32;;;13.80;99.90;;;;;;4992502;28;20054;-65
2021/01/24 10:17:03;;;;;;;30.70;8.50;;;13.80;99.90;;;;;;4992479;28;20042;-65
2021/01/24 10:19:31;;;;;;;26.15;7.80;;;13.80;99.90;;;;;;4992487;28;20062;-64
2021/01/24 10:21:58;;;;;;;24.63;4.78;;;13.70;99.90;;;;;;4992047;28;20053;-65
2021/01/24 10:24:26;;;;;;;23.35;4.93;;;13.80;99.90;;;;;;4959126;28;20147;-63
2021/01/24 10:26:53;;;;;;;19.80;5.15;;;13.80;99.90;;;;;;4991612;28;20100;-65
2021/01/24 10:29:20;;;;;;;16.70;6.07;;;13.80;99.90;;;;;;4990714;28;20099;-66
2021/01/24 10:31:48;;;;;;;15.27;3.45;;;13.80;99.90;;;;;;4999778;28;20091;-64
2021/01/24 10:34:15;;;;;;;14.82;4.05;;;13.90;99.90;;;;;;5012172;28;20418;-66
2021/01/24 10:36:43;;;;;;;17.80;5.10;;;13.90;99.90;;;;;;5012083;28;20050;-60
2021/01/24 10:39:10;;;;;;;20.83;5.93;;;14.00;99.90;;;;;;4995089;28;20045;-64
2021/01/24 10:41:38;;;;;;;18.90;4.78;;;14.20;99.90;;;;;;5009662;28;20050;-66
2021/01/24 10:44:08;;;;;;;16.30;5.32;;;14.30;99.90;;;;;;5010848;28;20061;-66
2021/01/24 10:46:35;;;;;;;18.15;6.55;;;14.50;99.90;;;;;;5012380;28;20057;-64
2021/01/24 10:49:03;;;;;;;17.15;5.43;;;14.60;99.90;;;;;;5011549;28;20521;-64
2021/01/24 10:51:30;;;;;;;21.23;4.47;;;14.80;99.90;;;;;;5010397;28;20062;-64
2021/01/24 10:54:01;;;;;;;22.20;4.53;;;15.00;99.90;;;;;;4994518;28;20073;-64
2021/01/24 10:56:31;;;;;;;22.90;5.63;;;15.10;99.90;;;;;;5011776;28;20054;-64
2021/01/24 10:59:01;;;;;;;30.58;5.05;;;15.20;99.90;;;;;;5011825;28;20053;-64
2021/01/24 11:01:28;;;;;;;17.42;3.92;;;15.30;99.90;;;;;;5010982;28;20038;-65
2021/01/24 11:03:56;;;;;;;17.77;5.65;;;15.30;99.90;;;;;;4994194;28;20418;-65
2021/01/24 11:06:23;;;;;;;14.57;3.17;;;15.30;99.90;;;;;;5011567;28;20054;-66
2021/01/24 11:08:53;;;;;;;16.63;3.83;;;15.30;99.90;;;;;;5011493;28;20124;-64
2021/01/24 11:11:24;;;;;;;14.60;3.03;;;15.40;99.90;;;;;;5011635;28;20054;-65
2021/01/24 11:13:51;;;;;;;18.50;4.68;;;15.40;99.90;;;;;;5011794;28;20130;-64
2021/01/24 11:16:19;;;;;;;21.00;5.60;;;15.50;99.90;;;;;;5011240;28;20132;-64
2021/01/24 11:18:46;;;;;;;34.95;5.28;;;15.50;99.90;;;;;;5011244;28;20046;-64
2021/01/24 11:21:13;;;;;;;16.50;5.70;;;15.50;99.90;;;;;;5010877;28;20057;-64
2021/01/24 11:23:41;;;;;;;14.18;3.55;;;15.60;99.90;;;;;;5010499;28;20072;-64
2021/01/24 11:26:08;;;;;;;22.08;6.30;;;15.40;99.90;;;;;;5011211;28;20050;-63
2021/01/24 11:28:35;;;;;;;18.00;5.90;;;15.30;99.90;;;;;;5011107;28;20061;-62
2021/01/24 11:31:03;;;;;;;24.92;6.30;;;15.20;99.90;;;;;;5010108;28;20046;-64
2021/01/24 11:33:30;;;;;;;29.20;9.05;;;15.10;99.90;;;;;;5011133;28;20111;-64
2021/01/24 11:35:58;;;;;;;33.03;8.77;;;15.10;99.90;;;;;;5010903;28;20524;-64
2021/01/24 11:38:25;;;;;;;16.15;4.45;;;15.00;99.90;;;;;;4993747;28;20102;-64
2021/01/24 11:40:53;;;;;;;16.02;4.50;;;15.00;99.90;;;;;;5010415;28;20480;-58
2021/01/24 11:43:20;;;;;;;20.55;5.40;;;15.00;99.90;;;;;;5010170;28;20067;-61
2021/01/24 11:45:48;;;;;;;24.65;4.95;;;15.00;99.90;;;;;;5075880;28;20127;-66
2021/01/24 11:48:15;;;;;;;19.40;6.15;;;15.00;99.90;;;;;;5112054;28;20051;-67
2021/01/24 11:50:44;;;;;;;15.48;4.78;;;15.00;99.90;;;;;;5111622;28;20048;-61
2021/01/24 11:53:11;;;;;;;19.67;3.97;;;14.90;99.90;;;;;;5113686;28;20048;-64
2021/01/24 11:55:39;;;;;;;26.90;5.47;;;14.90;99.90;;;;;;5113575;28;20128;-64
2021/01/24 11:58:06;;;;;;;20.85;4.82;;;14.90;99.90;;;;;;5095682;28;20044;-63
2021/01/24 12:00:34;;;;;;;23.75;5.20;;;14.80;99.90;;;;;;5093699;28;20046;-63
2021/01/24 12:03:02;;;;;;;28.00;5.88;;;14.70;99.90;;;;;;4992952;28;20044;-64
2021/01/24 12:05:29;;;;;;;19.98;4.85;;;14.70;99.90;;;;;;5010762;28;20050;-63
2021/01/24 12:07:57;;;;;;;17.33;3.58;;;14.60;99.90;;;;;;5010467;28;20410;-65
2021/01/24 12:10:27;;;;;;;16.73;4.65;;;14.70;99.90;;;;;;5010564;28;20060;-64
2021/01/24 12:12:54;;;;;;;23.00;4.30;;;14.60;99.90;;;;;;5009829;28;20057;-65
2021/01/24 12:15:22;;;;;;;17.33;3.33;;;14.60;99.90;;;;;;5009977;28;20127;-65
2021/01/24 12:17:49;;;;;;;24.42;3.80;;;14.60;99.90;;;;;;5010044;28;20042;-64
2021/01/24 12:20:17;;;;;;;20.17;4.15;;;14.60;99.90;;;;;;5009442;28;20042;-64
2021/01/24 12:22:48;;;;;;;26.27;5.25;;;14.70;99.90;;;;;;5055800;28;20042;-64
2021/01/24 12:25:16;;;;;;;19.00;5.50;;;14.80;99.90;;;;;;5055681;28;20042;-64
2021/01/24 12:27:43;;;;;;;17.70;4.25;;;14.80;99.90;;;;;;5113170;28;20052;-63
2021/01/24 12:30:11;;;;;;;14.88;4.55;;;14.80;99.90;;;;;;5103502;28;20093;-63
2021/01/24 12:32:41;;;;;;;25.35;4.25;;;14.80;99.90;;;;;;5047950;28;20100;-63
2021/01/24 12:35:10;;;;;;;18.52;5.07;;;14.80;99.90;;;;;;5031958;28;20119;-64
2021/01/24 12:37:37;;;;;;;12.95;3.38;;;14.80;99.90;;;;;;5027461;28;20048;-64
2021/01/24 12:40:07;;;;;;;27.02;7.00;;;14.80;99.90;;;;;;4992781;28;20053;-65
2021/01/24 12:42:34;;;;;;;20.38;5.82;;;14.80;99.90;;;;;;5051581;28;20049;-65
2021/01/24 12:45:03;;;;;;;17.10;5.57;;;14.70;99.90;;;;;;5113447;28;20075;-65
2021/01/24 12:47:30;;;;;;;15.45;5.57;;;14.70;99.90;;;;;;5113043;28;20051;-62
2021/01/24 12:49:58;;;;;;;23.58;5.20;;;14.70;99.90;;;;;;5063730;28;20043;-62
2021/01/24 12:52:25;;;;;;;28.23;7.53;;;14.70;99.90;;;;;;5047458;28;20044;-59
2021/01/24 12:54:56;;;;;;;39.65;13.07;;;14.70;99.90;;;;;;5082612;28;20100;-61